Time,TemperatureF,DewpointF,PressureIn,WindDirection,WindDirectionDegrees,WindSpeedMPH,WindSpeedGustMPH,Humidity,HourlyPrecipIn,Conditions,Clouds,dailyrainin,SoftwareType,DateUTC
2013-01-23 00:02:00,25.0,18.0,30.33,ENE,65,1.0,-999.0,74,-99.99,,,-99.99,,2013-01-23 06:02:00,
2013-01-23 00:12:00,25.0,18.0,30.33,ENE,65,1.0,-999.0,74,-99.99,,,-99.99,,2013-01-23 06:12:00,
2013-01-23 00:22:00,25.0,18.0,30.33,East,81,0.0,-999.0,75,-99.99,,,-99.99,,2013-01-23 06:22:00,
2013-01-23 00:32:00,25.0,19.0,30.32,ENE,65,0.0,-999.0,76,-99.99,,,-99.99,,2013-01-23 06:32:00,
2013-01-23 00:43:00,25.0,19.0,30.32,ENE,65,0.0,-999.0,76,-99.99,,,-99.99,,2013-01-23 06:43:00,
2013-01-23 00:53:00,24.0,18.0,30.32,ENE,62,0.0,-999.0,77,-99.99,,,-99.99,,2013-01-23 06:53:00,
2013-01-23 01:02:00,23.0,17.0,30.32,ENE,62,0.0,-999.0,78,-99.99,,,-99.99,,2013-01-23 07:02:00,
2013-01-23 01:12:00,23.0,17.0,30.32,ENE,62,0.0,-999.0,78,-99.99,,,-99.99,,2013-01-23 07:12:00,
2013-01-23 01:22:00,23.0,17.0,30.32,ENE,62,0.0,-999.0,79,-99.99,,,-99.99,,2013-01-23 07:22:00,
2013-01-23 01:33:00,22.0,16.0,30.32,ENE,62,0.0,-999.0,79,-99.99,,,-99.99,,2013-01-23 07:33:00,
2013-01-23 01:42:00,22.0,16.0,30.32,ENE,62,0.0,-999.0,79,-99.99,,,-99.99,,2013-01-23 07:42:00,
2013-01-23 01:53:00,22.0,17.0,30.32,ENE,62,0.0,-999.0,80,-99.99,,,-99.99,,2013-01-23 07:53:00,
2013-01-23 02:02:00,22.0,17.0,30.31,ENE,62,0.0,-999.0,80,-99.99,,,-99.99,,2013-01-23 08:02:00,
2013-01-23 02:12:00,22.0,17.0,30.31,ENE,62,0.0,-999.0,80,-99.99,,,-99.99,,2013-01-23 08:12:00,
2013-01-23 02:22:00,22.0,17.0,30.31,ENE,62,0.0,-999.0,80,-99.99,,,-99.99,,2013-01-23 08:22:00,
2013-01-23 02:33:00,22.0,17.0,30.31,ENE,62,0.0,-999.0,82,-99.99,,,-99.99,,2013-01-23 08:33:00,
2013-01-23 02:42:00,22.0,17.0,30.31,ENE,62,0.0,-999.0,82,-99.99,,,-99.99,,2013-01-23 08:42:00,
2013-01-23 02:53:00,21.0,16.0,30.31,ENE,62,0.0,-999.0,82,-99.99,,,-99.99,,2013-01-23 08:53:00,
2013-01-23 03:03:00,21.0,16.0,30.31,ENE,62,0.0,-999.0,82,-99.99,,,-99.99,,2013-01-23 09:03:00,
2013-01-23 03:12:00,21.0,16.0,30.31,ENE,62,0.0,-999.0,82,-99.99,,,-99.99,,2013-01-23 09:12:00,
2013-01-23 03:22:00,21.0,17.0,30.31,ENE,62,0.0,-999.0,84,-99.99,,,-99.99,,2013-01-23 09:22:00,
2013-01-23 03:32:00,20.0,16.0,30.30,ENE,62,0.0,-999.0,83,-99.99,,,-99.99,,2013-01-23 09:32:00,
2013-01-23 03:43:00,20.0,16.0,30.30,ENE,62,0.0,-999.0,83,-99.99,,,-99.99,,2013-01-23 09:43:00,
2013-01-23 03:53:00,20.0,16.0,30.30,ENE,62,0.0,-999.0,83,-99.99,,,-99.99,,2013-01-23 09:53:00,
2013-01-23 04:02:00,20.0,16.0,30.30,ENE,62,0.0,-999.0,84,-99.99,,,-99.99,,2013-01-23 10:02:00,
2013-01-23 04:12:00,20.0,16.0,30.30,ENE,62,0.0,-999.0,84,-99.99,,,-99.99,,2013-01-23 10:12:00,
2013-01-23 04:23:00,20.0,16.0,30.30,ENE,62,0.0,-999.0,84,-99.99,,,-99.99,,2013-01-23 10:23:00,
2013-01-23 04:32:00,19.0,15.0,30.29,ENE,62,0.0,-999.0,84,-99.99,,,-99.99,,2013-01-23 10:32:00,
2013-01-23 04:42:00,19.0,15.0,30.29,ENE,62,0.0,-999.0,84,-99.99,,,-99.99,,2013-01-23 10:42:00,
2013-01-23 04:53:00,19.0,15.0,30.29,ENE,62,0.0,-999.0,85,-99.99,,,-99.99,,2013-01-23 10:53:00,
2013-01-23 05:02:00,19.0,16.0,30.29,ENE,62,0.0,-999.0,86,-99.99,,,-99.99,,2013-01-23 11:02:00,
2013-01-23 05:12:00,19.0,16.0,30.29,ENE,62,0.0,-999.0,86,-99.99,,,-99.99,,2013-01-23 11:12:00,
2013-01-23 05:22:00,19.0,15.0,30.29,ENE,62,0.0,-999.0,85,-99.99,,,-99.99,,2013-01-23 11:22:00,
2013-01-23 05:33:00,19.0,16.0,30.29,ENE,62,0.0,-999.0,86,-99.99,,,-99.99,,2013-01-23 11:33:00,
2013-01-23 05:43:00,19.0,16.0,30.29,ENE,62,0.0,-999.0,86,-99.99,,,-99.99,,2013-01-23 11:43:00,
2013-01-23 05:53:00,19.0,15.0,30.29,ENE,62,0.0,-999.0,85,-99.99,,,-99.99,,2013-01-23 11:53:00,
2013-01-23 06:03:00,19.0,16.0,30.29,ENE,62,0.0,-999.0,86,-99.99,,,-99.99,,2013-01-23 12:03:00,
2013-01-23 06:12:00,19.0,16.0,30.29,ENE,62,0.0,-999.0,86,-99.99,,,-99.99,,2013-01-23 12:12:00,
2013-01-23 06:22:00,18.0,15.0,30.28,ENE,62,0.0,-999.0,86,-99.99,,,-99.99,,2013-01-23 12:22:00,
2013-01-23 06:33:00,19.0,16.0,30.29,ENE,62,0.0,-999.0,86,-99.99,,,-99.99,,2013-01-23 12:33:00,
2013-01-23 06:43:00,19.0,16.0,30.29,ENE,62,0.0,-999.0,86,-99.99,,,-99.99,,2013-01-23 12:43:00,
2013-01-23 06:53:00,19.0,16.0,30.29,ENE,62,0.0,-999.0,86,-99.99,,,-99.99,,2013-01-23 12:53:00,
2013-01-23 07:03:00,19.0,16.0,30.30,ENE,62,0.0,-999.0,88,-99.99,,,-99.99,,2013-01-23 13:03:00,
2013-01-23 07:13:00,19.0,16.0,30.30,ENE,62,0.0,-999.0,88,-99.99,,,-99.99,,2013-01-23 13:13:00,
2013-01-23 07:23:00,19.0,16.0,30.30,ENE,62,0.0,-999.0,87,-99.99,,,-99.99,,2013-01-23 13:23:00,
2013-01-23 07:33:00,19.0,16.0,30.31,ENE,62,0.0,-999.0,88,-99.99,,,-99.99,,2013-01-23 13:33:00,
2013-01-23 07:42:00,19.0,16.0,30.31,ENE,62,0.0,-999.0,88,-99.99,,,-99.99,,2013-01-23 13:42:00,
2013-01-23 07:53:00,19.0,16.0,30.30,ENE,62,0.0,-999.0,88,-99.99,,,-99.99,,2013-01-23 13:53:00,
2013-01-23 08:02:00,19.0,16.0,30.31,ENE,62,0.0,-999.0,88,-99.99,,,-99.99,,2013-01-23 14:02:00,
2013-01-23 08:12:00,19.0,16.0,30.31,ENE,62,0.0,-999.0,88,-99.99,,,-99.99,,2013-01-23 14:12:00,
2013-01-23 08:23:00,19.0,16.0,30.30,ENE,62,0.0,-999.0,88,-99.99,,,-99.99,,2013-01-23 14:23:00,
2013-01-23 08:33:00,21.0,19.0,30.30,ENE,62,0.0,-999.0,90,-99.99,,,-99.99,,2013-01-23 14:33:00,
2013-01-23 08:43:00,21.0,19.0,30.30,ENE,62,0.0,-999.0,90,-99.99,,,-99.99,,2013-01-23 14:43:00,
2013-01-23 08:53:00,23.0,19.0,30.30,ENE,62,0.0,-999.0,86,-99.99,,,-99.99,,2013-01-23 14:53:00,
2013-01-23 09:03:00,24.0,20.0,30.30,ENE,62,0.0,-999.0,84,-99.99,,,-99.99,,2013-01-23 15:03:00,
2013-01-23 09:12:00,24.0,20.0,30.30,ENE,62,0.0,-999.0,84,-99.99,,,-99.99,,2013-01-23 15:12:00,
2013-01-23 09:23:00,26.0,21.0,30.29,ENE,62,0.0,-999.0,80,-99.99,,,-99.99,,2013-01-23 15:23:00,
2013-01-23 09:33:00,27.0,21.0,30.29,SE,127,0.0,-999.0,79,-99.99,,,-99.99,,2013-01-23 15:33:00,
2013-01-23 09:43:00,27.0,21.0,30.29,SE,127,0.0,-999.0,79,-99.99,,,-99.99,,2013-01-23 15:43:00,
2013-01-23 09:53:00,28.0,21.0,30.29,ESE,123,0.0,-999.0,75,-99.99,,,-99.99,,2013-01-23 15:53:00,
2013-01-23 10:03:00,28.0,21.0,30.29,ESE,123,0.0,-999.0,75,-99.99,,,-99.99,,2013-01-23 16:03:00,
2013-01-23 10:12:00,28.0,21.0,30.29,ESE,123,0.0,-999.0,75,-99.99,,,-99.99,,2013-01-23 16:12:00,
2013-01-23 10:23:00,31.0,22.0,30.29,ESE,123,1.0,-999.0,70,-99.99,,,-99.99,,2013-01-23 16:23:00,
2013-01-23 10:32:00,32.0,23.0,30.29,ESE,123,0.0,-999.0,69,-99.99,,,-99.99,,2013-01-23 16:32:00,
2013-01-23 10:43:00,32.0,23.0,30.29,ESE,123,0.0,-999.0,69,-99.99,,,-99.99,,2013-01-23 16:43:00,
2013-01-23 10:53:00,34.0,25.0,30.29,WSW,246,1.0,-999.0,69,-99.99,,,-99.99,,2013-01-23 16:53:00,
2013-01-23 11:03:00,35.0,26.0,30.29,WSW,246,1.0,-999.0,68,-99.99,,,-99.99,,2013-01-23 17:03:00,
2013-01-23 11:12:00,35.0,26.0,30.29,WSW,246,1.0,-999.0,68,-99.99,,,-99.99,,2013-01-23 17:12:00,
2013-01-23 11:23:00,37.0,26.0,30.27,WSW,246,0.0,-999.0,63,-99.99,,,-99.99,,2013-01-23 17:23:00,
2013-01-23 11:33:00,38.0,27.0,30.26,WSW,246,0.0,-999.0,63,-99.99,,,-99.99,,2013-01-23 17:33:00,
2013-01-23 11:42:00,38.0,27.0,30.26,WSW,246,0.0,-999.0,63,-99.99,,,-99.99,,2013-01-23 17:42:00,
2013-01-23 11:53:00,40.0,27.0,30.24,WSW,246,0.0,-999.0,60,-99.99,,,-99.99,,2013-01-23 17:53:00,
2013-01-23 12:03:00,42.0,29.0,30.22,East,98,1.0,-999.0,59,-99.99,,,-99.99,,2013-01-23 18:03:00,
2013-01-23 12:12:00,42.0,29.0,30.22,East,98,1.0,-999.0,59,-99.99,,,-99.99,,2013-01-23 18:12:00,
2013-01-23 12:23:00,43.0,29.0,30.22,West,259,1.0,-999.0,57,-99.99,,,-99.99,,2013-01-23 18:23:00,
2013-01-23 12:33:00,43.0,29.0,30.22,West,259,1.0,-999.0,57,-99.99,,,-99.99,,2013-01-23 18:33:00,
2013-01-23 12:43:00,45.0,31.0,30.20,West,259,0.0,-999.0,57,-99.99,,,-99.99,,2013-01-23 18:43:00,
2013-01-23 12:53:00,45.0,31.0,30.20,West,259,0.0,-999.0,57,-99.99,,,-99.99,,2013-01-23 18:53:00,
2013-01-23 13:03:00,49.0,33.0,30.18,West,259,0.0,-999.0,53,-99.99,,,-99.99,,2013-01-23 19:03:00,
2013-01-23 13:13:00,49.0,33.0,30.18,West,259,0.0,-999.0,53,-99.99,,,-99.99,,2013-01-23 19:13:00,
2013-01-23 13:23:00,51.0,34.0,30.16,West,259,0.0,-999.0,51,-99.99,,,-99.99,,2013-01-23 19:23:00,
2013-01-23 13:33:00,53.0,35.0,30.16,West,259,0.0,-999.0,50,-99.99,,,-99.99,,2013-01-23 19:33:00,
2013-01-23 13:43:00,53.0,35.0,30.16,West,259,0.0,-999.0,50,-99.99,,,-99.99,,2013-01-23 19:43:00,
2013-01-23 13:53:00,55.0,37.0,30.16,West,259,0.0,-999.0,50,-99.99,,,-99.99,,2013-01-23 19:53:00,
2013-01-23 14:03:00,56.0,38.0,30.15,West,259,0.0,-999.0,50,-99.99,,,-99.99,,2013-01-23 20:03:00,
2013-01-23 14:12:00,56.0,38.0,30.15,West,259,0.0,-999.0,50,-99.99,,,-99.99,,2013-01-23 20:12:00,
2013-01-23 14:23:00,57.0,38.0,30.15,West,259,0.0,-999.0,49,-99.99,,,-99.99,,2013-01-23 20:23:00,
2013-01-23 14:33:00,58.0,38.0,30.14,West,259,0.0,-999.0,47,-99.99,,,-99.99,,2013-01-23 20:33:00,
2013-01-23 14:42:00,58.0,38.0,30.14,West,259,0.0,-999.0,47,-99.99,,,-99.99,,2013-01-23 20:42:00,
2013-01-23 14:53:00,60.0,39.0,30.13,West,259,0.0,-999.0,46,-99.99,,,-99.99,,2013-01-23 20:53:00,
2013-01-23 15:03:00,60.0,40.0,30.13,West,259,0.0,-999.0,47,-99.99,,,-99.99,,2013-01-23 21:03:00,
2013-01-23 15:12:00,60.0,40.0,30.13,West,259,0.0,-999.0,47,-99.99,,,-99.99,,2013-01-23 21:12:00,
2013-01-23 15:23:00,59.0,40.0,30.12,West,259,0.0,-999.0,49,-99.99,,,-99.99,,2013-01-23 21:23:00,
2013-01-23 15:33:00,59.0,40.0,30.13,West,259,0.0,-999.0,49,-99.99,,,-99.99,,2013-01-23 21:33:00,
2013-01-23 15:42:00,59.0,40.0,30.13,West,259,0.0,-999.0,49,-99.99,,,-99.99,,2013-01-23 21:42:00,
2013-01-23 15:53:00,60.0,41.0,30.12,West,259,0.0,-999.0,49,-99.99,,,-99.99,,2013-01-23 21:53:00,
2013-01-23 16:02:00,59.0,41.0,30.12,West,259,0.0,-999.0,51,-99.99,,,-99.99,,2013-01-23 22:02:00,
2013-01-23 16:12:00,59.0,41.0,30.12,West,259,0.0,-999.0,51,-99.99,,,-99.99,,2013-01-23 22:12:00,
2013-01-23 16:23:00,60.0,42.0,30.12,West,259,0.0,-999.0,51,-99.99,,,-99.99,,2013-01-23 22:23:00,
2013-01-23 16:33:00,60.0,41.0,30.11,West,259,0.0,-999.0,49,-99.99,,,-99.99,,2013-01-23 22:33:00,
2013-01-23 16:42:00,60.0,41.0,30.11,West,259,0.0,-999.0,49,-99.99,,,-99.99,,2013-01-23 22:42:00,
2013-01-23 16:53:00,59.0,41.0,30.11,West,259,0.0,-999.0,51,-99.99,,,-99.99,,2013-01-23 22:53:00,
2013-01-23 17:03:00,59.0,41.0,30.11,West,259,0.0,-999.0,52,-99.99,,,-99.99,,2013-01-23 23:03:00,
2013-01-23 17:12:00,59.0,41.0,30.11,West,259,0.0,-999.0,52,-99.99,,,-99.99,,2013-01-23 23:12:00,
2013-01-23 17:23:00,56.0,41.0,30.11,West,259,0.0,-999.0,56,-99.99,,,-99.99,,2013-01-23 23:23:00,
2013-01-23 17:33:00,53.0,39.0,30.11,West,259,0.0,-999.0,59,-99.99,,,-99.99,,2013-01-23 23:33:00,
2013-01-23 17:42:00,53.0,39.0,30.11,West,259,0.0,-999.0,59,-99.99,,,-99.99,,2013-01-23 23:42:00,
2013-01-23 17:52:00,49.0,38.0,30.12,West,259,0.0,-999.0,65,-99.99,,,-99.99,,2013-01-23 23:52:00,
2013-01-23 18:03:00,47.0,38.0,30.13,West,259,0.0,-999.0,70,-99.99,,,-99.99,,2013-01-24 00:03:00,
2013-01-23 18:12:00,47.0,38.0,30.13,West,259,0.0,-999.0,70,-99.99,,,-99.99,,2013-01-24 00:12:00,
2013-01-23 18:22:00,45.0,37.0,30.13,West,259,0.0,-999.0,73,-99.99,,,-99.99,,2013-01-24 00:22:00,
2013-01-23 18:32:00,43.0,36.0,30.13,West,259,0.0,-999.0,75,-99.99,,,-99.99,,2013-01-24 00:32:00,
2013-01-23 18:42:00,43.0,36.0,30.13,West,259,0.0,-999.0,75,-99.99,,,-99.99,,2013-01-24 00:42:00,
2013-01-23 18:52:00,42.0,35.0,30.13,West,259,0.0,-999.0,77,-99.99,,,-99.99,,2013-01-24 00:52:00,
2013-01-23 19:03:00,41.0,35.0,30.13,West,259,0.0,-999.0,78,-99.99,,,-99.99,,2013-01-24 01:03:00,
2013-01-23 19:12:00,41.0,35.0,30.13,West,259,0.0,-999.0,78,-99.99,,,-99.99,,2013-01-24 01:12:00,
2013-01-23 19:22:00,40.0,34.0,30.14,West,259,0.0,-999.0,80,-99.99,,,-99.99,,2013-01-24 01:22:00,
2013-01-23 19:33:00,40.0,34.0,30.14,West,259,0.0,-999.0,80,-99.99,,,-99.99,,2013-01-24 01:33:00,
2013-01-23 19:42:00,40.0,34.0,30.14,West,259,0.0,-999.0,80,-99.99,,,-99.99,,2013-01-24 01:42:00,
2013-01-23 19:52:00,38.0,33.0,30.15,West,259,0.0,-999.0,83,-99.99,,,-99.99,,2013-01-24 01:52:00,
2013-01-23 20:02:00,37.0,33.0,30.15,West,259,0.0,-999.0,84,-99.99,,,-99.99,,2013-01-24 02:02:00,
2013-01-23 20:12:00,37.0,33.0,30.15,West,259,0.0,-999.0,84,-99.99,,,-99.99,,2013-01-24 02:12:00,
2013-01-23 20:22:00,36.0,32.0,30.17,West,259,0.0,-999.0,85,-99.99,,,-99.99,,2013-01-24 02:22:00,
2013-01-23 20:33:00,35.0,31.0,30.18,West,259,0.0,-999.0,85,-99.99,,,-99.99,,2013-01-24 02:33:00,
2013-01-23 20:42:00,35.0,31.0,30.18,West,259,0.0,-999.0,85,-99.99,,,-99.99,,2013-01-24 02:42:00,
2013-01-23 20:52:00,35.0,31.0,30.18,West,259,0.0,-999.0,85,-99.99,,,-99.99,,2013-01-24 02:52:00,
2013-01-23 21:02:00,34.0,30.0,30.19,West,259,0.0,-999.0,86,-99.99,,,-99.99,,2013-01-24 03:02:00,
2013-01-23 21:12:00,34.0,30.0,30.19,West,259,0.0,-999.0,86,-99.99,,,-99.99,,2013-01-24 03:12:00,
2013-01-23 21:22:00,34.0,31.0,30.20,West,259,0.0,-999.0,87,-99.99,,,-99.99,,2013-01-24 03:22:00,
2013-01-23 21:33:00,33.0,30.0,30.21,West,259,0.0,-999.0,88,-99.99,,,-99.99,,2013-01-24 03:33:00,
2013-01-23 21:43:00,33.0,30.0,30.21,West,259,0.0,-999.0,88,-99.99,,,-99.99,,2013-01-24 03:43:00,
2013-01-23 21:52:00,33.0,30.0,30.21,West,259,0.0,-999.0,88,-99.99,,,-99.99,,2013-01-24 03:52:00,
2013-01-23 22:02:00,33.0,30.0,30.22,West,259,0.0,-999.0,88,-99.99,,,-99.99,,2013-01-24 04:02:00,
2013-01-23 22:12:00,33.0,30.0,30.22,West,259,0.0,-999.0,88,-99.99,,,-99.99,,2013-01-24 04:12:00,
2013-01-23 22:22:00,33.0,30.0,30.22,West,259,0.0,-999.0,88,-99.99,,,-99.99,,2013-01-24 04:22:00,
2013-01-23 22:32:00,32.0,29.0,30.24,West,259,0.0,-999.0,89,-99.99,,,-99.99,,2013-01-24 04:32:00,
2013-01-23 22:42:00,32.0,29.0,30.24,West,259,0.0,-999.0,89,-99.99,,,-99.99,,2013-01-24 04:42:00,
2013-01-23 22:52:00,31.0,28.0,30.24,West,259,0.0,-999.0,89,-99.99,,,-99.99,,2013-01-24 04:52:00,
2013-01-23 23:03:00,31.0,28.0,30.25,West,259,0.0,-999.0,90,-99.99,,,-99.99,,2013-01-24 05:03:00,
2013-01-23 23:12:00,31.0,28.0,30.25,West,259,0.0,-999.0,90,-99.99,,,-99.99,,2013-01-24 05:12:00,
2013-01-23 23:22:00,31.0,28.0,30.26,West,259,0.0,-999.0,90,-99.99,,,-99.99,,2013-01-24 05:22:00,
2013-01-23 23:33:00,31.0,28.0,30.26,West,259,0.0,-999.0,90,-99.99,,,-99.99,,2013-01-24 05:33:00,
2013-01-23 23:42:00,31.0,28.0,30.26,West,259,0.0,-999.0,90,-99.99,,,-99.99,,2013-01-24 05:42:00,
2013-01-23 23:52:00,31.0,29.0,30.26,West,259,0.0,-999.0,91,-99.99,,,-99.99,,2013-01-24 05:52:00,